createdAt,value
2023-04-24T00:01:40.552Z,13.00
2023-04-24T00:04:17.192Z,12.80
2023-04-24T00:06:58.681Z,12.50
2023-04-24T00:09:32.547Z,11.90
2023-04-24T00:12:08.326Z,11.40
2023-04-24T00:14:39.819Z,11.00
2023-04-24T00:17:20.128Z,11.60
2023-04-24T00:20:02.527Z,13.20
2023-04-24T00:22:36.413Z,11.40
2023-04-24T00:25:14.294Z,48.30
2023-04-24T00:27:52.446Z,16.00
2023-04-24T00:30:26.310Z,17.30
2023-04-24T00:33:06.976Z,13.20
2023-04-24T00:35:45.062Z,12.10
2023-04-24T00:38:19.737Z,11.80
2023-04-24T00:41:08.728Z,10.60
2023-04-24T00:43:42.945Z,11.50
2023-04-24T00:46:16.461Z,11.10
2023-04-24T00:48:55.975Z,11.10
2023-04-24T00:51:33.394Z,11.30
2023-04-24T00:54:10.965Z,11.50
2023-04-24T00:56:44.254Z,11.70
2023-04-24T00:59:18.558Z,11.40
2023-04-24T01:01:52.441Z,10.90
2023-04-24T01:04:29.995Z,11.60
2023-04-24T01:07:03.384Z,11.40
2023-04-24T01:09:42.671Z,11.20
2023-04-24T01:12:18.523Z,10.90
2023-04-24T01:15:03.009Z,11.50
2023-04-24T01:17:39.865Z,11.00
2023-04-24T01:20:17.798Z,10.90
2023-04-24T01:22:53.805Z,11.40
2023-04-24T01:25:41.221Z,12.10
2023-04-24T01:28:17.828Z,11.40
2023-04-24T01:30:52.315Z,11.80
2023-04-24T01:33:30.542Z,12.00
2023-04-24T01:36:10.556Z,11.60
2023-04-24T01:38:47.858Z,12.20
2023-04-24T01:41:20.826Z,12.10
2023-04-24T01:43:53.550Z,11.60
2023-04-24T01:46:28.968Z,12.10
2023-04-24T01:49:04.168Z,12.40
2023-04-24T01:51:45.136Z,12.10
2023-04-24T01:54:21.518Z,12.10
2023-04-24T01:56:56.891Z,12.90
2023-04-24T01:59:31.685Z,12.70
2023-04-24T02:02:06.788Z,13.00
2023-04-24T02:04:44.775Z,13.40
2023-04-24T02:07:22.138Z,12.70
2023-04-24T02:09:57.678Z,13.80
2023-04-24T02:12:31.785Z,13.80
2023-04-24T02:15:04.722Z,13.50
2023-04-24T02:17:43.114Z,13.50
2023-04-24T02:20:21.867Z,13.50
2023-04-24T02:23:02.516Z,13.10
2023-04-24T02:25:37.592Z,14.00
2023-04-24T02:28:12.029Z,13.20
2023-04-24T02:30:47.969Z,12.60
2023-04-24T02:33:20.958Z,13.60
2023-04-24T02:35:53.642Z,13.20
2023-04-24T02:38:27.906Z,13.80
2023-04-24T02:41:03.646Z,13.30
2023-04-24T02:43:44.782Z,13.50
2023-04-24T02:46:19.009Z,13.80
2023-04-24T02:48:51.711Z,12.80
2023-04-24T02:51:28.158Z,13.50
2023-04-24T02:54:02.554Z,13.30
2023-04-24T02:56:37.565Z,14.20
2023-04-24T02:59:11.053Z,12.40
2023-04-24T03:02:07.806Z,13.40
2023-04-24T03:05:00.504Z,12.80
2023-04-24T03:07:38.085Z,13.20
2023-04-24T03:10:17.759Z,13.70
2023-04-24T03:12:49.607Z,12.90
2023-04-24T03:15:25.712Z,13.50
2023-04-24T03:17:59.981Z,13.70
2023-04-24T03:20:39.691Z,12.70
2023-04-24T03:23:14.912Z,13.90
2023-04-24T03:25:52.450Z,13.00
2023-04-24T03:28:28.255Z,13.30
2023-04-24T03:31:07.980Z,13.40
2023-04-24T03:33:42.117Z,13.90
2023-04-24T03:36:18.627Z,13.40
2023-04-24T03:38:52.332Z,13.10
2023-04-24T03:41:36.057Z,13.60
2023-04-24T03:44:19.680Z,13.80
2023-04-24T03:46:56.338Z,13.50
2023-04-24T03:49:34.693Z,13.90
2023-04-24T03:52:07.131Z,13.40
2023-04-24T03:54:46.655Z,14.00
2023-04-24T03:57:21.436Z,13.80
2023-04-24T04:00:05.654Z,14.00
2023-04-24T04:02:50.679Z,13.70
2023-04-24T04:05:40.564Z,13.00
2023-04-24T04:08:14.377Z,13.20
2023-04-24T04:10:49.038Z,15.40
2023-04-24T04:13:42.242Z,14.50
2023-04-24T04:16:14.216Z,14.30
2023-04-24T04:18:48.003Z,14.70
2023-04-24T04:21:21.758Z,13.80
2023-04-24T04:23:58.089Z,13.80
2023-04-24T04:26:38.234Z,14.60
2023-04-24T04:29:14.272Z,13.40
2023-04-24T04:31:49.190Z,13.30
2023-04-24T04:34:22.026Z,13.40
2023-04-24T04:37:01.474Z,12.80
2023-04-24T04:39:54.105Z,13.20
2023-04-24T04:42:30.606Z,13.50
2023-04-24T04:45:03.283Z,13.50
2023-04-24T04:47:42.777Z,13.60
2023-04-24T04:50:15.043Z,14.00
2023-04-24T04:52:48.856Z,13.70
2023-04-24T04:55:29.584Z,13.80
2023-04-24T04:58:46.710Z,13.60
2023-04-24T05:01:23.854Z,13.70
2023-04-24T05:03:57.968Z,14.00
2023-04-24T05:06:32.228Z,13.20
2023-04-24T05:09:06.115Z,13.80
2023-04-24T05:11:45.650Z,13.50
2023-04-24T05:14:19.718Z,13.40
2023-04-24T05:16:55.291Z,13.40
2023-04-24T05:19:33.500Z,13.20
2023-04-24T05:22:08.772Z,12.90
2023-04-24T05:24:43.150Z,12.10
2023-04-24T05:27:30.242Z,13.00
2023-04-24T05:30:19.631Z,12.50
2023-04-24T05:32:52.806Z,12.80
2023-04-24T05:35:25.082Z,12.90
2023-04-24T05:38:00.702Z,12.30
2023-04-24T05:40:32.502Z,12.00
2023-04-24T05:43:07.556Z,12.90
2023-04-24T05:45:44.968Z,12.80
2023-04-24T05:48:23.736Z,12.10
2023-04-24T05:50:57.827Z,12.20
2023-04-24T05:53:36.096Z,17.00
2023-04-24T05:56:09.682Z,16.40
2023-04-24T05:58:45.217Z,13.10
2023-04-24T06:01:20.821Z,12.10
2023-04-24T06:04:03.273Z,11.00
2023-04-24T06:06:40.940Z,12.50
2023-04-24T06:09:13.310Z,11.50
2023-04-24T06:11:54.068Z,11.30
2023-04-24T06:14:29.041Z,11.10
2023-04-24T06:17:37.687Z,10.20
2023-04-24T06:20:16.167Z,10.50
2023-04-24T06:23:04.238Z,10.40
2023-04-24T06:25:40.424Z,10.20
2023-04-24T06:28:17.414Z,10.20
2023-04-24T06:30:51.714Z,9.60
2023-04-24T06:33:30.166Z,9.80
2023-04-24T06:36:13.334Z,9.20
2023-04-24T06:38:48.773Z,9.30
2023-04-24T06:41:23.605Z,8.30
2023-04-24T06:44:09.737Z,8.80
2023-04-24T06:46:44.636Z,8.90
2023-04-24T06:49:33.889Z,8.50
2023-04-24T06:52:07.879Z,8.40
2023-04-24T06:54:39.989Z,8.20
2023-04-24T06:57:18.010Z,10.70
2023-04-24T06:59:53.148Z,14.20
2023-04-24T07:02:29.234Z,8.80
2023-04-24T07:05:05.519Z,8.00
2023-04-24T07:07:42.097Z,7.90
2023-04-24T07:10:18.516Z,7.70
2023-04-24T07:12:52.658Z,7.40
2023-04-24T07:15:26.034Z,7.80
2023-04-24T07:18:04.050Z,7.50
2023-04-24T07:20:38.448Z,7.10
2023-04-24T07:23:13.835Z,7.80
2023-04-24T07:25:47.276Z,7.60
2023-04-24T07:28:20.954Z,6.80
2023-04-24T07:30:57.428Z,6.60
2023-04-24T07:33:28.369Z,6.60
2023-04-24T07:36:02.481Z,6.70
2023-04-24T07:38:36.115Z,6.40
2023-04-24T07:41:12.096Z,5.90
2023-04-24T07:43:49.191Z,7.00
2023-04-24T07:46:27.574Z,7.60
2023-04-24T07:49:12.304Z,9.00
2023-04-24T07:51:48.339Z,7.10
2023-04-24T07:54:24.697Z,5.70
2023-04-24T07:56:58.749Z,6.30
2023-04-24T07:59:33.458Z,5.50
2023-04-24T08:02:08.958Z,6.00
2023-04-24T08:04:43.158Z,7.30
2023-04-24T08:07:17.523Z,5.20
2023-04-24T08:09:50.761Z,5.60
2023-04-24T08:12:27.246Z,5.60
2023-04-24T08:15:06.989Z,5.30
2023-04-24T08:17:40.551Z,5.20
2023-04-24T08:20:16.678Z,5.00
2023-04-24T08:22:53.246Z,5.20
2023-04-24T08:25:27.018Z,4.80
2023-04-24T08:28:01.529Z,4.80
2023-04-24T08:30:34.344Z,5.00
2023-04-24T08:33:13.780Z,5.30
2023-04-24T08:35:48.607Z,4.90
2023-04-24T08:38:21.738Z,4.40
2023-04-24T08:40:56.392Z,4.10
2023-04-24T08:43:28.698Z,3.30
2023-04-24T08:46:19.993Z,3.60
2023-04-24T08:49:02.768Z,3.80
2023-04-24T08:51:38.950Z,3.40
2023-04-24T08:54:15.235Z,3.50
2023-04-24T08:56:50.878Z,4.40
2023-04-24T08:59:33.077Z,4.70
2023-04-24T09:02:07.295Z,4.10
2023-04-24T09:04:44.512Z,4.20
2023-04-24T09:07:19.759Z,3.40
2023-04-24T09:10:02.807Z,3.50
2023-04-24T09:12:39.512Z,3.40
2023-04-24T09:15:16.294Z,3.40
2023-04-24T09:17:58.371Z,3.20
2023-04-24T09:20:33.306Z,4.40
2023-04-24T09:23:13.444Z,4.20
2023-04-24T09:25:45.732Z,5.70
2023-04-24T09:28:29.477Z,5.10
2023-04-24T09:31:19.887Z,5.90
2023-04-24T09:34:04.033Z,5.40
2023-04-24T09:36:38.879Z,12.50
2023-04-24T09:39:17.271Z,6.10
2023-04-24T09:41:50.660Z,5.30
2023-04-24T09:44:26.901Z,4.90
2023-04-24T09:47:03.117Z,5.10
2023-04-24T09:49:37.836Z,5.40
2023-04-24T09:52:22.380Z,5.60
2023-04-24T09:55:01.811Z,5.70
2023-04-24T09:57:36.633Z,5.80
2023-04-24T10:00:19.377Z,11.80
2023-04-24T10:02:58.830Z,11.00
2023-04-24T10:05:38.982Z,6.50
2023-04-24T10:08:14.588Z,5.90
2023-04-24T10:10:52.442Z,5.90
2023-04-24T10:13:36.879Z,5.40
2023-04-24T10:16:15.103Z,5.80
2023-04-24T10:19:04.344Z,5.30
2023-04-24T10:21:46.705Z,5.60
2023-04-24T10:24:22.656Z,5.90
2023-04-24T10:26:58.808Z,5.40
2023-04-24T10:29:39.873Z,5.90
2023-04-24T10:32:12.032Z,6.30
2023-04-24T10:34:48.853Z,7.40
2023-04-24T10:37:22.086Z,6.50
2023-04-24T10:39:59.231Z,7.00
2023-04-24T10:42:44.318Z,7.40
2023-04-24T10:45:22.561Z,7.80
2023-04-24T10:48:00.553Z,8.70
2023-04-24T10:50:49.904Z,8.70
2023-04-24T10:53:24.474Z,11.60
2023-04-24T10:56:04.801Z,10.60
2023-04-24T10:58:53.568Z,9.30
2023-04-24T11:01:35.789Z,8.90
2023-04-24T11:04:12.822Z,7.50
2023-04-24T11:06:45.818Z,7.70
2023-04-24T11:09:21.508Z,7.80
2023-04-24T11:12:09.492Z,7.30
2023-04-24T11:15:04.391Z,7.70
2023-04-24T11:17:45.213Z,7.50
2023-04-24T11:20:28.568Z,6.80
2023-04-24T11:23:08.447Z,7.70
2023-04-24T11:25:46.200Z,7.40
2023-04-24T11:28:27.147Z,8.00
2023-04-24T11:31:21.369Z,6.20
2023-04-24T11:33:54.564Z,6.40
2023-04-24T11:36:33.078Z,6.10
2023-04-24T11:39:06.774Z,6.00
2023-04-24T11:41:37.462Z,6.20
2023-04-24T11:44:16.573Z,5.80
2023-04-24T11:46:51.296Z,6.00
2023-04-24T11:49:22.354Z,6.70
2023-04-24T11:52:01.125Z,6.20
2023-04-24T11:54:37.226Z,6.50
2023-04-24T11:57:09.086Z,7.30
2023-04-24T11:59:43.988Z,6.40
2023-04-24T12:02:28.042Z,5.60
2023-04-24T12:05:04.300Z,6.20
2023-04-24T12:07:47.260Z,5.70
2023-04-24T12:10:42.426Z,7.10
2023-04-24T12:13:17.345Z,5.80
2023-04-24T12:15:56.312Z,5.70
2023-04-24T12:18:32.554Z,6.10
2023-04-24T12:21:23.208Z,6.20
2023-04-24T12:24:01.545Z,6.60
2023-04-24T12:26:37.386Z,6.80
2023-04-24T12:29:15.169Z,7.00
2023-04-24T12:32:04.463Z,7.40
2023-04-24T12:34:37.807Z,9.50
2023-04-24T12:37:14.831Z,7.90
2023-04-24T12:40:04.312Z,6.90
2023-04-24T12:42:55.663Z,7.50
2023-04-24T12:45:44.640Z,7.40
2023-04-24T12:48:18.776Z,8.50
2023-04-24T12:50:53.039Z,7.60
2023-04-24T12:53:27.260Z,7.90
2023-04-24T12:56:05.226Z,8.10
2023-04-24T12:58:40.542Z,8.20
2023-04-24T13:01:16.550Z,8.70
2023-04-24T13:03:51.515Z,7.80
2023-04-24T13:06:26.977Z,14.60
2023-04-24T13:09:01.043Z,7.50
2023-04-24T13:11:41.630Z,7.90
2023-04-24T13:14:14.493Z,7.30
2023-04-24T13:16:48.783Z,7.50
2023-04-24T13:19:24.511Z,7.80
2023-04-24T13:21:59.817Z,7.70
2023-04-24T13:24:37.056Z,7.20
2023-04-24T13:27:13.644Z,7.70
2023-04-24T13:29:49.323Z,7.60
2023-04-24T13:32:23.700Z,7.50
2023-04-24T13:34:57.426Z,7.70
2023-04-24T13:37:37.038Z,8.60
2023-04-24T13:40:23.473Z,7.50
2023-04-24T13:42:57.749Z,7.20
2023-04-24T13:45:30.141Z,10.60
2023-04-24T13:48:09.841Z,7.20
2023-04-24T13:50:44.640Z,7.20
2023-04-24T13:53:20.158Z,7.30
2023-04-24T13:55:57.440Z,7.80
2023-04-24T13:58:30.341Z,7.60
2023-04-24T14:01:06.732Z,7.70
2023-04-24T14:03:42.573Z,7.00
2023-04-24T14:06:17.644Z,6.60
2023-04-24T14:09:12.298Z,6.60
2023-04-24T14:11:44.298Z,6.10
2023-04-24T14:14:18.474Z,5.90
2023-04-24T14:16:59.900Z,5.70
2023-04-24T14:19:32.761Z,5.20
2023-04-24T14:22:08.248Z,5.60
2023-04-24T14:24:44.634Z,9.00
2023-04-24T14:27:20.900Z,6.60
2023-04-24T14:30:02.221Z,6.00
2023-04-24T14:32:36.714Z,5.70
2023-04-24T14:35:14.250Z,6.10
2023-04-24T14:37:52.608Z,12.30
2023-04-24T14:43:25.416Z,6.90
2023-04-24T14:46:04.572Z,7.00
2023-04-24T14:48:36.588Z,19.30
2023-04-24T14:51:19.322Z,7.10
2023-04-24T14:53:56.187Z,6.50
2023-04-24T14:56:35.240Z,7.10
2023-04-24T14:59:07.441Z,8.10
2023-04-24T15:01:41.324Z,8.20
2023-04-24T15:04:16.400Z,8.40
2023-04-24T15:06:51.338Z,8.20
2023-04-24T15:09:32.977Z,7.70
2023-04-24T15:12:05.315Z,8.00
2023-04-24T15:14:38.922Z,7.70
2023-04-24T15:17:13.147Z,7.20
2023-04-24T15:19:49.070Z,6.90
2023-04-24T15:22:22.310Z,7.20
2023-04-24T15:24:55.301Z,7.40
2023-04-24T15:27:47.308Z,6.40
2023-04-24T15:30:22.179Z,6.40
2023-04-24T15:32:56.771Z,6.10
2023-04-24T15:35:39.625Z,6.20
2023-04-24T15:38:14.523Z,6.20
2023-04-24T15:40:49.044Z,5.90
2023-04-24T15:43:24.532Z,5.70
2023-04-24T15:45:58.304Z,5.70
2023-04-24T15:48:32.754Z,6.40
2023-04-24T15:51:04.619Z,6.40
2023-04-24T15:53:42.205Z,6.50
2023-04-24T15:56:15.128Z,11.00
2023-04-24T15:58:49.509Z,7.40
2023-04-24T16:01:26.853Z,7.30
2023-04-24T16:04:07.339Z,7.70
2023-04-24T16:06:44.202Z,6.50
2023-04-24T16:09:21.485Z,6.00
2023-04-24T16:11:54.058Z,5.60
2023-04-24T16:14:30.848Z,5.80
2023-04-24T16:17:04.506Z,5.20
2023-04-24T16:19:36.582Z,7.00
2023-04-24T16:22:14.969Z,5.00
2023-04-24T16:24:48.192Z,4.90
2023-04-24T16:27:20.445Z,4.80
2023-04-24T16:30:02.321Z,4.90
2023-04-24T16:32:36.073Z,4.70
2023-04-24T16:35:09.461Z,4.70
2023-04-24T16:37:42.721Z,4.60
2023-04-24T16:40:17.099Z,4.40
2023-04-24T16:42:48.755Z,4.70
2023-04-24T16:45:22.214Z,4.30
2023-04-24T16:47:54.842Z,4.10
2023-04-24T16:50:30.314Z,4.40
2023-04-24T16:53:09.578Z,3.90
2023-04-24T16:55:44.240Z,4.20
2023-04-24T16:58:17.076Z,6.20
2023-04-24T17:00:50.596Z,3.60
2023-04-24T17:03:24.296Z,3.40
2023-04-24T17:05:58.907Z,2.90
2023-04-24T17:08:31.007Z,3.10
2023-04-24T17:11:02.100Z,2.60
2023-04-24T17:13:36.342Z,3.20
2023-04-24T17:16:08.024Z,3.40
2023-04-24T17:18:39.807Z,2.90
2023-04-24T17:21:12.589Z,3.40
2023-04-24T17:23:45.377Z,3.10
2023-04-24T17:26:17.622Z,3.10
2023-04-24T17:28:50.765Z,3.30
2023-04-24T17:31:23.437Z,3.10
2023-04-24T17:33:55.568Z,3.30
2023-04-24T17:36:29.360Z,3.30
2023-04-24T17:39:02.768Z,3.30
2023-04-24T17:41:35.020Z,3.20
2023-04-24T17:44:08.116Z,3.70
2023-04-24T17:46:41.107Z,3.60
2023-04-24T17:49:13.183Z,3.40
2023-04-24T17:51:53.885Z,3.60
2023-04-24T17:54:28.457Z,3.70
2023-04-24T17:56:59.750Z,3.20
2023-04-24T17:59:32.019Z,3.20
2023-04-24T18:02:04.751Z,3.30
2023-04-24T18:04:39.420Z,3.50
2023-04-24T18:07:12.525Z,3.60
2023-04-24T18:09:44.515Z,3.70
2023-04-24T18:12:17.460Z,3.50
2023-04-24T18:14:50.450Z,3.50
2023-04-24T18:17:26.080Z,3.80
2023-04-24T18:19:59.278Z,3.40
2023-04-24T18:22:33.227Z,3.20
2023-04-24T18:25:08.669Z,3.40
2023-04-24T18:27:42.923Z,3.60
2023-04-24T18:30:16.550Z,3.40
2023-04-24T18:32:53.201Z,3.20
2023-04-24T18:35:25.982Z,3.00
2023-04-24T18:38:01.706Z,3.60
2023-04-24T18:40:33.411Z,4.90
2023-04-24T18:43:06.648Z,4.50
2023-04-24T18:45:39.021Z,4.60
2023-04-24T18:48:13.319Z,5.00
2023-04-24T18:50:46.371Z,4.10
2023-04-24T18:53:19.106Z,4.00
2023-04-24T18:55:52.925Z,4.20
2023-04-24T18:58:25.864Z,4.40
2023-04-24T19:00:58.597Z,4.50
2023-04-24T19:03:33.136Z,5.20
2023-04-24T19:06:07.846Z,5.70
2023-04-24T19:08:42.684Z,5.70
2023-04-24T19:11:15.287Z,5.30
2023-04-24T19:13:47.604Z,4.90
2023-04-24T19:16:20.154Z,5.40
2023-04-24T19:18:53.139Z,5.40
2023-04-24T19:21:23.630Z,4.80
2023-04-24T19:23:57.795Z,5.00
2023-04-24T19:26:31.138Z,5.30
2023-04-24T19:29:02.007Z,4.60
2023-04-24T19:31:34.034Z,4.60
2023-04-24T19:34:06.823Z,4.40
2023-04-24T19:36:39.008Z,4.10
2023-04-24T19:39:11.758Z,4.60
2023-04-24T19:41:44.180Z,4.40
2023-04-24T19:44:18.870Z,4.20
2023-04-24T19:46:51.813Z,4.50
2023-04-24T19:49:23.377Z,4.60
2023-04-24T19:51:55.534Z,4.80
2023-04-24T19:54:30.784Z,4.40
2023-04-24T19:57:04.083Z,4.50
2023-04-24T19:59:35.058Z,4.60
2023-04-24T20:02:07.565Z,5.20
2023-04-24T20:04:41.219Z,4.60
2023-04-24T20:07:17.871Z,4.90
2023-04-24T20:09:53.108Z,4.90
2023-04-24T20:12:25.794Z,4.60
2023-04-24T20:14:59.253Z,4.90
2023-04-24T20:17:32.938Z,5.40
2023-04-24T20:20:08.438Z,5.50
2023-04-24T20:22:40.473Z,5.00
2023-04-24T20:25:15.312Z,5.30
2023-04-24T20:27:49.237Z,5.80
2023-04-24T20:30:25.298Z,7.30
2023-04-24T20:32:57.944Z,7.90
2023-04-24T20:35:29.257Z,9.30
2023-04-24T20:38:03.090Z,10.50
2023-04-24T20:40:37.649Z,9.90
2023-04-24T20:43:12.711Z,9.70
2023-04-24T20:45:48.233Z,9.80
2023-04-24T20:48:21.392Z,12.30
2023-04-24T20:50:54.565Z,11.70
2023-04-24T20:53:28.786Z,10.50
2023-04-24T20:56:00.357Z,11.60
2023-04-24T20:58:31.029Z,9.90
2023-04-24T21:01:05.411Z,9.90
2023-04-24T21:03:38.720Z,12.30
2023-04-24T21:06:10.985Z,10.50
2023-04-24T21:08:45.345Z,9.30
2023-04-24T21:11:21.927Z,8.80
2023-04-24T21:13:54.767Z,8.50
2023-04-24T21:16:30.191Z,7.90
2023-04-24T21:19:03.060Z,7.80
2023-04-24T21:21:34.716Z,8.00
2023-04-24T21:24:06.666Z,8.00
2023-04-24T21:26:39.788Z,8.30
2023-04-24T21:29:17.027Z,8.30
2023-04-24T21:31:49.628Z,9.00
2023-04-24T21:34:21.362Z,9.00
2023-04-24T21:36:56.847Z,8.90
2023-04-24T21:39:31.336Z,8.70
2023-04-24T21:42:03.747Z,8.50
2023-04-24T21:44:34.644Z,8.50
2023-04-24T21:47:09.151Z,8.30
2023-04-24T21:49:43.730Z,8.70
2023-04-24T21:52:16.103Z,8.90
2023-04-24T21:54:50.717Z,8.40
2023-04-24T21:57:22.765Z,7.80
2023-04-24T21:59:56.703Z,7.40
2023-04-24T22:02:30.219Z,7.40
2023-04-24T22:05:25.460Z,6.70
2023-04-24T22:08:00.959Z,7.30
2023-04-24T22:10:33.727Z,7.60
2023-04-24T22:13:08.776Z,7.80
2023-04-24T22:15:45.379Z,8.50
2023-04-24T22:18:19.283Z,8.60
2023-04-24T22:20:51.474Z,7.90
2023-04-24T22:23:28.441Z,7.90
2023-04-24T22:26:01.729Z,7.80
2023-04-24T22:28:37.378Z,8.40
2023-04-24T22:31:11.044Z,8.20
2023-04-24T22:33:42.947Z,8.20
2023-04-24T22:36:16.460Z,8.40
2023-04-24T22:38:48.415Z,8.20
2023-04-24T22:41:21.321Z,8.10
2023-04-24T22:43:56.163Z,8.40
2023-04-24T22:46:28.271Z,7.80
2023-04-24T22:49:03.348Z,7.70
2023-04-24T22:51:37.816Z,6.90
2023-04-24T22:54:10.076Z,6.70
2023-04-24T22:56:41.898Z,6.30
2023-04-24T22:59:16.197Z,6.20
2023-04-24T23:01:49.060Z,5.50
2023-04-24T23:04:20.769Z,5.00
2023-04-24T23:06:54.291Z,4.50
2023-04-24T23:09:30.779Z,4.30
2023-04-24T23:12:02.951Z,4.00
2023-04-24T23:14:38.233Z,4.00
2023-04-24T23:17:12.466Z,4.10
2023-04-24T23:19:44.868Z,3.90
2023-04-24T23:22:21.854Z,3.80
2023-04-24T23:24:52.197Z,3.90
2023-04-24T23:27:23.638Z,4.20
2023-04-24T23:29:57.227Z,4.00
2023-04-24T23:32:29.478Z,3.80
2023-04-24T23:35:02.614Z,3.80
2023-04-24T23:37:40.167Z,3.60
2023-04-24T23:40:14.814Z,4.30
2023-04-24T23:43:05.604Z,4.50
2023-04-24T23:45:40.849Z,4.10
2023-04-24T23:48:15.036Z,4.10
2023-04-24T23:50:47.052Z,4.50
2023-04-24T23:53:20.552Z,4.20
2023-04-24T23:55:58.027Z,4.20
2023-04-24T23:58:34.139Z,3.90
